createdAt,value
2018-03-29T00:00:27.160Z,987.66
2018-03-29T00:01:26.970Z,987.65
2018-03-29T00:02:26.804Z,987.62
2018-03-29T00:03:26.766Z,987.61
2018-03-29T00:04:26.752Z,987.64
2018-03-29T00:05:26.775Z,987.66
2018-03-29T00:06:27.004Z,987.70
2018-03-29T00:07:26.795Z,987.75
2018-03-29T00:08:26.660Z,987.72
2018-03-29T00:09:26.629Z,987.73
2018-03-29T00:10:26.611Z,987.70
2018-03-29T00:11:26.747Z,987.73
2018-03-29T00:12:26.916Z,987.71
2018-03-29T00:13:26.635Z,987.67
2018-03-29T00:14:26.523Z,987.69
2018-03-29T00:15:26.515Z,987.76
2018-03-29T00:16:26.625Z,987.74
2018-03-29T00:17:26.558Z,987.77
2018-03-29T00:18:26.421Z,987.80
2018-03-29T00:19:26.813Z,987.75
2018-03-29T00:20:26.378Z,987.70
2018-03-29T00:21:26.369Z,987.71
2018-03-29T00:22:26.385Z,987.72
2018-03-29T00:23:26.531Z,987.74
2018-03-29T00:24:26.552Z,987.77
2018-03-29T00:25:26.292Z,987.80
2018-03-29T00:26:26.761Z,987.78
2018-03-29T00:27:26.229Z,987.77
2018-03-29T00:28:26.477Z,987.77
2018-03-29T00:29:26.174Z,987.77
2018-03-29T00:30:26.359Z,987.80
2018-03-29T00:31:26.212Z,987.76
2018-03-29T00:32:26.117Z,987.80
2018-03-29T00:33:26.438Z,987.82
2018-03-29T00:34:26.066Z,987.79
2018-03-29T00:35:26.054Z,987.88
2018-03-29T00:36:26.022Z,987.87
2018-03-29T00:37:26.009Z,987.88
2018-03-29T00:38:25.968Z,987.89
2018-03-29T00:39:25.995Z,987.92
2018-03-29T00:40:26.241Z,987.94
2018-03-29T00:42:25.873Z,987.97
2018-03-29T00:43:25.854Z,987.97
2018-03-29T00:44:26.188Z,987.95
2018-03-29T00:45:25.959Z,987.93
2018-03-29T00:46:25.883Z,988.01
2018-03-29T00:47:26.129Z,988.00
2018-03-29T00:48:25.817Z,988.06
2018-03-29T00:49:25.838Z,988.08
2018-03-29T00:50:25.902Z,988.11
2018-03-29T00:51:25.733Z,988.10
2018-03-29T00:52:25.678Z,988.12
2018-03-29T00:53:25.678Z,988.10
2018-03-29T00:54:26.204Z,988.10
2018-03-29T00:55:25.592Z,988.16
2018-03-29T00:56:25.565Z,988.24
2018-03-29T00:57:25.642Z,988.30
2018-03-29T00:58:25.820Z,988.20
2018-03-29T01:00:25.675Z,988.32
2018-03-29T01:01:25.750Z,988.29
2018-03-29T01:03:25.404Z,988.25
2018-03-29T01:07:25.610Z,988.28
2018-03-29T01:08:25.287Z,988.34
2018-03-29T01:09:25.267Z,988.33
2018-03-29T01:10:25.242Z,988.33
2018-03-29T01:11:25.226Z,988.30
2018-03-29T01:12:25.675Z,988.34
2018-03-29T01:13:25.477Z,988.35
2018-03-29T01:14:25.160Z,988.37
2018-03-29T01:15:25.129Z,988.37
2018-03-29T01:16:25.097Z,988.36
2018-03-29T01:17:25.131Z,988.38
2018-03-29T01:18:25.154Z,988.43
2018-03-29T01:19:25.369Z,988.41
2018-03-29T01:20:25.020Z,988.47
2018-03-29T01:21:25.029Z,988.49
2018-03-29T01:22:24.965Z,988.48
2018-03-29T01:23:25.804Z,988.50
2018-03-29T01:24:24.916Z,988.55
2018-03-29T01:25:25.298Z,988.57
2018-03-29T01:26:25.072Z,988.58
2018-03-29T01:27:24.851Z,988.62
2018-03-29T01:28:24.824Z,988.66
2018-03-29T01:29:24.801Z,988.67
2018-03-29T01:30:24.874Z,988.65
2018-03-29T01:31:25.108Z,988.72
2018-03-29T01:32:24.725Z,988.73
2018-03-29T01:33:24.764Z,988.75
2018-03-29T01:34:24.689Z,988.76
2018-03-29T01:35:24.668Z,988.75
2018-03-29T01:36:24.641Z,988.79
2018-03-29T01:37:24.723Z,988.67
2018-03-29T01:38:24.889Z,988.75
2018-03-29T01:39:24.572Z,988.80
2018-03-29T01:40:24.546Z,988.77
2018-03-29T01:41:24.528Z,988.83
2018-03-29T01:42:24.504Z,988.74
2018-03-29T01:43:24.631Z,988.88
2018-03-29T01:44:24.548Z,988.86
2018-03-29T01:45:24.735Z,988.80
2018-03-29T01:46:24.514Z,988.79
2018-03-29T01:47:24.490Z,988.84
2018-03-29T01:48:24.465Z,988.87
2018-03-29T01:49:24.387Z,988.89
2018-03-29T01:50:24.320Z,988.99
2018-03-29T01:51:24.299Z,988.92
2018-03-29T01:52:24.576Z,989.01
2018-03-29T01:53:24.467Z,989.04
2018-03-29T01:54:24.273Z,989.07
2018-03-29T01:55:24.404Z,989.04
2018-03-29T01:56:24.339Z,989.14
2018-03-29T01:57:24.334Z,989.13
2018-03-29T01:58:24.140Z,989.22
2018-03-29T01:59:24.414Z,989.20
2018-03-29T02:00:24.190Z,989.20
2018-03-29T02:01:24.164Z,989.22
2018-03-29T02:02:24.757Z,989.19
2018-03-29T02:03:24.220Z,989.31
2018-03-29T02:04:24.007Z,989.39
2018-03-29T02:05:24.079Z,989.38
2018-03-29T02:06:24.249Z,989.44
2018-03-29T02:07:23.932Z,989.32
2018-03-29T02:08:23.915Z,989.34
2018-03-29T02:09:23.886Z,989.47
2018-03-29T02:10:24.456Z,989.40
2018-03-29T02:11:23.836Z,989.40
2018-03-29T02:12:23.873Z,989.44
2018-03-29T02:13:24.105Z,989.40
2018-03-29T02:14:23.946Z,989.47
2018-03-29T02:15:23.754Z,989.44
2018-03-29T02:16:23.868Z,989.59
2018-03-29T02:17:23.746Z,989.58
2018-03-29T02:18:23.677Z,989.56
2018-03-29T02:19:23.745Z,989.65
2018-03-29T02:20:23.975Z,989.60
2018-03-29T02:21:23.608Z,989.65
2018-03-29T02:22:23.815Z,989.59
2018-03-29T02:23:23.668Z,989.47
2018-03-29T02:24:23.548Z,989.78
2018-03-29T02:25:23.529Z,989.68
2018-03-29T02:26:23.900Z,989.63
2018-03-29T02:27:24.074Z,989.77
2018-03-29T02:28:23.463Z,989.69
2018-03-29T02:29:23.433Z,989.72
2018-03-29T02:30:23.414Z,989.71
2018-03-29T02:31:23.438Z,989.78
2018-03-29T02:32:23.656Z,989.69
2018-03-29T02:33:23.394Z,989.76
2018-03-29T02:34:23.408Z,989.73
2018-03-29T02:35:23.296Z,989.81
2018-03-29T02:36:23.263Z,989.81
2018-03-29T02:37:23.262Z,989.80
2018-03-29T02:38:23.544Z,989.85
2018-03-29T02:39:23.248Z,989.78
2018-03-29T02:40:23.187Z,989.71
2018-03-29T02:41:23.144Z,989.86
2018-03-29T02:42:23.132Z,989.81
2018-03-29T02:43:23.206Z,989.83
2018-03-29T02:44:23.487Z,989.82
2018-03-29T02:45:23.112Z,989.73
2018-03-29T02:46:23.054Z,990.04
2018-03-29T02:47:23.022Z,989.89
2018-03-29T02:48:22.987Z,989.93
2018-03-29T02:49:23.565Z,989.85
2018-03-29T02:50:23.243Z,989.96
2018-03-29T02:51:23.113Z,989.95
2018-03-29T02:52:23.082Z,989.88
2018-03-29T02:54:23.060Z,989.92
2018-03-29T02:55:22.880Z,989.96
2018-03-29T02:56:23.380Z,989.99
2018-03-29T02:57:23.117Z,990.04
2018-03-29T02:58:22.750Z,990.18
2018-03-29T03:00:22.858Z,990.04
2018-03-29T03:01:22.700Z,990.19
2018-03-29T03:02:22.670Z,990.07
2018-03-29T03:03:22.998Z,990.06
2018-03-29T03:04:22.623Z,990.13
2018-03-29T03:05:22.955Z,990.15
2018-03-29T03:06:22.574Z,990.16
2018-03-29T03:07:22.547Z,990.16
2018-03-29T03:08:22.530Z,990.18
2018-03-29T03:09:22.501Z,990.27
2018-03-29T03:10:22.778Z,990.32
2018-03-29T03:13:22.524Z,990.33
2018-03-29T03:14:22.401Z,990.27
2018-03-29T03:15:22.387Z,990.33
2018-03-29T03:16:23.652Z,990.36
2018-03-29T03:17:22.617Z,990.43
2018-03-29T03:18:22.336Z,990.39
2018-03-29T03:19:22.278Z,990.33
2018-03-29T03:20:22.288Z,990.41
2018-03-29T03:21:22.383Z,990.45
2018-03-29T03:22:22.314Z,990.06
2018-03-29T03:23:22.188Z,990.49
2018-03-29T03:24:22.562Z,990.42
2018-03-29T03:25:22.389Z,990.47
2018-03-29T03:26:22.329Z,990.52
2018-03-29T03:27:22.243Z,990.50
2018-03-29T03:28:22.774Z,990.63
2018-03-29T03:29:22.032Z,990.57
2018-03-29T03:30:22.189Z,990.57
2018-03-29T03:31:22.302Z,990.54
2018-03-29T03:32:21.980Z,990.59
2018-03-29T03:33:21.948Z,990.64
2018-03-29T03:34:21.980Z,990.69
2018-03-29T03:35:21.905Z,990.76
2018-03-29T03:36:21.879Z,990.67
2018-03-29T03:37:21.863Z,990.63
2018-03-29T03:38:22.191Z,990.73
2018-03-29T03:39:21.816Z,990.88
2018-03-29T03:40:21.801Z,990.71
2018-03-29T03:41:21.872Z,990.72
2018-03-29T03:42:21.740Z,990.77
2018-03-29T03:43:21.734Z,990.70
2018-03-29T03:44:21.694Z,990.73
2018-03-29T03:45:21.980Z,990.79
2018-03-29T03:46:21.747Z,990.92
2018-03-29T03:47:21.733Z,990.83
2018-03-29T03:48:21.619Z,990.88
2018-03-29T03:49:21.795Z,990.88
2018-03-29T03:50:21.572Z,990.87
2018-03-29T03:51:21.838Z,990.89
2018-03-29T03:52:21.818Z,991.03
2018-03-29T03:53:21.482Z,990.80
2018-03-29T03:54:21.470Z,990.93
2018-03-29T03:55:21.599Z,990.93
2018-03-29T03:56:21.442Z,990.93
2018-03-29T03:57:21.741Z,990.89
2018-03-29T03:58:21.553Z,990.95
2018-03-29T03:59:21.461Z,990.94
2018-03-29T04:00:21.325Z,990.97
2018-03-29T04:01:21.346Z,991.03
2018-03-29T04:02:21.709Z,991.01
2018-03-29T04:03:21.567Z,991.03
2018-03-29T04:04:21.460Z,991.12
2018-03-29T04:05:21.472Z,991.09
2018-03-29T04:06:21.469Z,991.04
2018-03-29T04:07:21.201Z,991.22
2018-03-29T04:08:21.304Z,991.11
2018-03-29T04:09:21.434Z,991.11
2018-03-29T04:10:21.208Z,991.10
2018-03-29T04:11:21.239Z,991.13
2018-03-29T04:12:21.056Z,991.13
2018-03-29T04:13:21.457Z,991.15
2018-03-29T04:14:21.110Z,991.13
2018-03-29T04:15:21.384Z,991.15
2018-03-29T04:16:20.965Z,991.17
2018-03-29T04:17:20.958Z,991.31
2018-03-29T04:18:20.927Z,991.27
2018-03-29T04:19:20.990Z,991.17
2018-03-29T04:20:21.467Z,991.32
2018-03-29T04:21:21.148Z,991.25
2018-03-29T04:22:20.827Z,991.37
2018-03-29T04:23:20.912Z,991.26
2018-03-29T04:24:20.846Z,991.41
2018-03-29T04:25:20.847Z,991.42
2018-03-29T04:27:20.712Z,991.40
2018-03-29T04:28:20.992Z,991.48
2018-03-29T04:29:20.767Z,991.42
2018-03-29T04:30:20.654Z,991.44
2018-03-29T04:31:20.624Z,991.50
2018-03-29T04:32:20.698Z,991.50
2018-03-29T04:33:20.572Z,991.45
2018-03-29T04:34:20.698Z,991.53
2018-03-29T04:35:20.576Z,991.44
2018-03-29T04:36:20.502Z,991.53
2018-03-29T04:37:20.471Z,991.42
2018-03-29T04:38:20.458Z,991.50
2018-03-29T04:39:20.602Z,991.54
2018-03-29T04:40:20.977Z,991.62
2018-03-29T04:41:20.588Z,991.62
2018-03-29T04:42:20.539Z,991.52
2018-03-29T04:43:20.421Z,991.65
2018-03-29T04:44:20.323Z,991.62
2018-03-29T04:45:20.406Z,991.70
2018-03-29T04:46:20.543Z,991.68
2018-03-29T04:47:20.558Z,991.66
2018-03-29T04:48:20.329Z,991.65
2018-03-29T04:49:20.207Z,991.69
2018-03-29T04:50:20.189Z,991.69
2018-03-29T04:51:20.161Z,991.76
2018-03-29T04:52:20.194Z,991.79
2018-03-29T04:53:20.172Z,991.80
2018-03-29T04:54:20.399Z,991.73
2018-03-29T04:55:20.073Z,991.78
2018-03-29T04:56:20.052Z,991.91
2018-03-29T04:57:20.024Z,991.81
2018-03-29T04:58:20.052Z,991.84
2018-03-29T04:59:19.986Z,991.84
2018-03-29T05:00:19.955Z,991.77
2018-03-29T05:01:20.250Z,991.96
2018-03-29T05:02:19.919Z,991.83
2018-03-29T05:03:20.122Z,991.87
2018-03-29T05:04:19.876Z,991.85
2018-03-29T05:05:19.850Z,991.93
2018-03-29T05:06:19.833Z,991.96
2018-03-29T05:07:19.994Z,991.98
2018-03-29T05:08:20.390Z,991.90
2018-03-29T05:09:19.759Z,992.02
2018-03-29T05:10:19.997Z,991.92
2018-03-29T05:11:19.874Z,991.91
2018-03-29T05:12:19.700Z,992.06
2018-03-29T05:13:19.675Z,992.00
2018-03-29T05:14:20.001Z,992.10
2018-03-29T05:15:19.719Z,992.04
2018-03-29T05:16:19.696Z,992.06
2018-03-29T05:17:19.587Z,992.15
2018-03-29T05:18:19.666Z,992.22
2018-03-29T05:19:19.536Z,992.21
2018-03-29T05:20:19.858Z,992.13
2018-03-29T05:21:19.539Z,992.14
2018-03-29T05:22:19.561Z,992.30
2018-03-29T05:23:19.449Z,992.18
2018-03-29T05:25:19.499Z,992.17
2018-03-29T05:27:20.010Z,992.34
2018-03-29T05:28:19.509Z,992.32
2018-03-29T05:29:19.405Z,992.35
2018-03-29T05:30:19.383Z,992.30
2018-03-29T05:31:19.266Z,992.32
2018-03-29T05:32:19.606Z,992.40
2018-03-29T05:33:19.524Z,992.46
2018-03-29T05:34:19.194Z,992.30
2018-03-29T05:35:19.171Z,992.50
2018-03-29T05:36:19.650Z,992.40
2018-03-29T05:37:19.132Z,992.37
2018-03-29T05:38:19.100Z,992.42
2018-03-29T05:39:19.389Z,992.51
2018-03-29T05:40:19.069Z,992.44
2018-03-29T05:41:19.057Z,992.50
2018-03-29T05:42:19.070Z,992.54
2018-03-29T05:43:19.031Z,992.53
2018-03-29T05:44:19.021Z,992.55
2018-03-29T05:45:19.242Z,992.54
2018-03-29T05:46:18.926Z,992.59
2018-03-29T05:47:19.070Z,992.69
2018-03-29T05:48:19.035Z,992.60
2018-03-29T05:49:18.938Z,992.66
2018-03-29T05:50:18.838Z,992.67
2018-03-29T05:51:18.825Z,992.74
2018-03-29T05:52:19.103Z,992.74
2018-03-29T05:53:18.883Z,992.62
2018-03-29T05:54:18.850Z,992.79
2018-03-29T05:55:18.720Z,992.80
2018-03-29T05:56:18.806Z,992.74
2018-03-29T05:57:18.777Z,992.71
2018-03-29T05:58:18.652Z,992.91
2018-03-29T05:59:18.933Z,992.88
2018-03-29T06:00:18.896Z,992.89
2018-03-29T06:01:18.753Z,992.79
2018-03-29T06:02:19.412Z,992.96
2018-03-29T06:03:18.716Z,992.86
2018-03-29T06:04:18.585Z,992.91
2018-03-29T06:05:18.928Z,992.86
2018-03-29T06:06:19.043Z,993.00
2018-03-29T06:07:18.661Z,992.95
2018-03-29T06:08:18.557Z,992.87
2018-03-29T06:09:18.409Z,992.98
2018-03-29T06:10:18.391Z,993.00
2018-03-29T06:11:18.428Z,993.09
2018-03-29T06:13:18.627Z,993.02
2018-03-29T06:14:18.518Z,992.88
2018-03-29T06:15:18.275Z,992.98
2018-03-29T06:16:18.258Z,993.02
2018-03-29T06:17:18.242Z,993.09
2018-03-29T06:18:18.315Z,992.95
2018-03-29T06:19:18.241Z,993.16
2018-03-29T06:20:18.177Z,993.19
2018-03-29T06:21:18.150Z,993.07
2018-03-29T06:22:18.177Z,993.22
2018-03-29T06:23:18.204Z,993.24
2018-03-29T06:24:18.074Z,993.24
2018-03-29T06:25:18.141Z,993.22
2018-03-29T06:26:18.448Z,993.27
2018-03-29T06:28:18.065Z,993.29
2018-03-29T06:29:18.070Z,993.32
2018-03-29T06:30:17.945Z,993.23
2018-03-29T06:31:18.079Z,993.34
2018-03-29T06:32:18.264Z,993.39
2018-03-29T06:33:18.189Z,993.34
2018-03-29T06:34:17.860Z,993.41
2018-03-29T06:35:18.036Z,993.35
2018-03-29T06:36:17.829Z,993.40
2018-03-29T06:37:18.110Z,993.54
2018-03-29T06:38:17.826Z,993.48
2018-03-29T06:39:17.862Z,993.48
2018-03-29T06:40:17.733Z,993.56
2018-03-29T06:41:17.854Z,993.56
2018-03-29T06:42:17.974Z,993.63
2018-03-29T06:43:17.873Z,993.61
2018-03-29T06:44:17.743Z,993.58
2018-03-29T06:45:17.917Z,993.58
2018-03-29T06:46:17.601Z,993.58
2018-03-29T06:47:17.753Z,993.74
2018-03-29T06:48:17.555Z,993.62
2018-03-29T06:49:17.535Z,993.71
2018-03-29T06:50:17.513Z,993.72
2018-03-29T06:51:17.787Z,993.77
2018-03-29T06:52:17.576Z,993.71
2018-03-29T06:53:17.554Z,993.78
2018-03-29T06:54:17.429Z,993.75
2018-03-29T06:55:17.400Z,993.66
2018-03-29T06:56:17.386Z,993.71
2018-03-29T06:57:17.665Z,993.79
2018-03-29T06:58:17.443Z,993.69
2018-03-29T06:59:17.323Z,993.82
2018-03-29T07:00:17.306Z,993.75
2018-03-29T07:01:17.601Z,993.73
2018-03-29T07:02:17.254Z,993.83
2018-03-29T07:03:17.931Z,993.90
2018-03-29T07:04:17.212Z,993.81
2018-03-29T07:05:17.193Z,993.87
2018-03-29T07:06:17.225Z,993.82
2018-03-29T07:07:17.148Z,993.94
2018-03-29T07:08:17.436Z,993.90
2018-03-29T07:09:17.201Z,993.96
2018-03-29T07:10:17.240Z,993.97
2018-03-29T07:11:17.160Z,993.95
2018-03-29T07:12:17.037Z,993.99
2018-03-29T07:13:17.126Z,994.10
2018-03-29T07:14:17.420Z,994.00
2018-03-29T07:15:17.087Z,993.96
2018-03-29T07:16:17.100Z,994.13
2018-03-29T07:17:16.941Z,994.07
2018-03-29T07:18:17.014Z,994.16
2018-03-29T07:19:16.899Z,994.15
2018-03-29T07:20:17.164Z,994.21
2018-03-29T07:21:16.852Z,994.16
2018-03-29T07:22:16.936Z,994.28
2018-03-29T07:24:16.883Z,994.32
2018-03-29T07:25:16.767Z,994.36
2018-03-29T07:26:17.124Z,994.32
2018-03-29T07:27:17.947Z,994.29
2018-03-29T07:28:17.390Z,994.27
2018-03-29T07:29:17.056Z,994.15
2018-03-29T07:30:16.994Z,994.22
2018-03-29T07:31:16.736Z,994.27
2018-03-29T07:32:16.616Z,994.15
2018-03-29T07:33:16.593Z,994.43
2018-03-29T07:34:16.610Z,994.37
2018-03-29T07:35:16.550Z,994.20
2018-03-29T07:36:16.550Z,994.27
2018-03-29T07:37:16.557Z,994.25
2018-03-29T07:38:16.580Z,994.37
2018-03-29T07:39:16.532Z,994.38
2018-03-29T07:40:16.745Z,994.50
2018-03-29T07:41:16.416Z,994.49
2018-03-29T07:42:16.493Z,994.29
2018-03-29T07:43:16.389Z,994.32
2018-03-29T07:44:16.366Z,994.43
2018-03-29T07:45:16.388Z,994.51
2018-03-29T07:46:16.534Z,994.62
2018-03-29T07:47:16.312Z,994.71
2018-03-29T07:48:16.280Z,994.55
2018-03-29T07:49:16.265Z,994.65
2018-03-29T07:50:16.247Z,994.59
2018-03-29T07:51:16.228Z,994.49
2018-03-29T07:53:16.578Z,994.65
2018-03-29T07:54:16.161Z,994.35
2018-03-29T07:55:16.145Z,994.51
2018-03-29T07:56:16.121Z,994.68
2018-03-29T07:57:16.104Z,994.72
2018-03-29T07:58:16.077Z,994.70
2018-03-29T07:59:16.408Z,994.69
2018-03-29T08:00:16.106Z,994.66
2018-03-29T08:01:16.028Z,994.60
2018-03-29T08:02:16.060Z,994.62
2018-03-29T08:03:16.040Z,994.89
2018-03-29T08:04:15.952Z,994.86
2018-03-29T08:05:16.129Z,994.86
2018-03-29T08:06:16.231Z,994.79
2018-03-29T08:07:15.910Z,994.81
2018-03-29T08:08:15.930Z,994.64
2018-03-29T08:09:15.856Z,994.84
2018-03-29T08:10:15.936Z,994.82
2018-03-29T08:11:15.870Z,994.82
2018-03-29T08:12:15.844Z,994.79
2018-03-29T08:13:16.083Z,994.84
2018-03-29T08:14:15.859Z,994.73
2018-03-29T08:15:15.743Z,994.87
2018-03-29T08:16:15.874Z,994.82
2018-03-29T08:17:15.716Z,994.80
2018-03-29T08:18:15.783Z,994.77
2018-03-29T08:19:16.016Z,994.84
2018-03-29T08:20:15.647Z,994.91
2018-03-29T08:21:15.627Z,994.97
2018-03-29T08:22:15.603Z,995.17
2018-03-29T08:23:15.686Z,995.15
2018-03-29T08:24:15.565Z,995.20
2018-03-29T08:25:15.535Z,995.11
2018-03-29T08:26:15.867Z,996.17
2018-03-29T08:27:15.612Z,995.30
2018-03-29T08:28:15.487Z,995.48
2018-03-29T08:29:15.557Z,995.87
2018-03-29T08:30:15.474Z,995.11
2018-03-29T08:31:15.428Z,995.42
2018-03-29T08:32:15.868Z,995.16
2018-03-29T08:33:15.390Z,995.41
2018-03-29T08:34:15.384Z,995.22
2018-03-29T08:35:15.493Z,995.07
2018-03-29T08:36:15.400Z,995.39
2018-03-29T08:37:15.423Z,995.80
2018-03-29T08:38:15.296Z,995.18
2018-03-29T08:39:15.537Z,995.75
2018-03-29T08:40:15.274Z,995.68
2018-03-29T08:41:15.300Z,995.77
2018-03-29T08:42:15.251Z,995.67
2018-03-29T08:43:15.507Z,995.60
2018-03-29T08:44:15.606Z,995.45
2018-03-29T08:45:15.171Z,995.35
2018-03-29T08:46:15.254Z,995.42
2018-03-29T08:47:15.239Z,995.19
2018-03-29T08:48:15.520Z,995.24
2018-03-29T08:49:15.104Z,995.08
2018-03-29T08:50:15.088Z,995.13
2018-03-29T08:51:15.369Z,995.18
2018-03-29T08:52:15.059Z,995.35
2018-03-29T08:53:15.090Z,995.02
2018-03-29T08:54:15.076Z,995.17
2018-03-29T08:55:15.012Z,995.10
2018-03-29T08:56:15.073Z,994.99
2018-03-29T08:57:15.291Z,995.15
2018-03-29T08:58:14.982Z,995.27
2018-03-29T08:59:15.164Z,995.13
2018-03-29T09:00:15.004Z,995.06
2018-03-29T09:02:14.877Z,995.09
2018-03-29T09:03:15.531Z,995.14
2018-03-29T09:04:15.149Z,995.14
2018-03-29T09:05:14.964Z,995.18
2018-03-29T09:06:15.217Z,995.24
2018-03-29T09:07:14.873Z,995.31
2018-03-29T09:08:14.757Z,995.34
2018-03-29T09:09:14.827Z,995.24
2018-03-29T09:10:15.110Z,995.25
2018-03-29T09:11:14.857Z,995.22
2018-03-29T09:12:14.692Z,995.25
2018-03-29T09:13:14.842Z,995.27
2018-03-29T09:14:14.760Z,995.33
2018-03-29T09:15:14.852Z,995.33
2018-03-29T09:16:15.033Z,995.33
2018-03-29T09:17:14.831Z,995.30
2018-03-29T09:18:14.708Z,995.38
2018-03-29T09:19:14.629Z,995.31
2018-03-29T09:20:14.544Z,995.36
2018-03-29T09:21:14.608Z,995.37
2018-03-29T09:22:14.864Z,995.40
2018-03-29T09:23:14.498Z,995.50
2018-03-29T09:24:14.557Z,995.39
2018-03-29T09:25:14.503Z,995.48
2018-03-29T09:26:14.440Z,995.44
2018-03-29T09:27:14.543Z,995.40
2018-03-29T09:28:14.708Z,995.44
2018-03-29T09:29:14.433Z,995.40
2018-03-29T09:30:14.356Z,995.38
2018-03-29T09:31:15.098Z,995.49
2018-03-29T09:32:14.314Z,995.42
2018-03-29T09:33:14.293Z,995.48
2018-03-29T09:34:14.567Z,995.42
2018-03-29T09:35:14.308Z,995.39
2018-03-29T09:36:14.348Z,995.43
2018-03-29T09:37:14.326Z,995.40
2018-03-29T09:38:15.503Z,995.46
2018-03-29T09:39:14.176Z,995.46
2018-03-29T09:40:14.504Z,995.50
2018-03-29T09:41:14.160Z,995.43
2018-03-29T09:42:14.136Z,995.51
2018-03-29T09:44:14.142Z,995.49
2018-03-29T09:45:14.065Z,995.54
2018-03-29T09:46:14.473Z,995.46
2018-03-29T09:47:14.143Z,995.56
2018-03-29T09:48:14.017Z,995.59
2018-03-29T09:49:14.094Z,995.62
2018-03-29T09:50:14.058Z,995.73
2018-03-29T09:51:14.078Z,995.69
2018-03-29T09:52:14.402Z,995.69
2018-03-29T09:53:14.022Z,995.68
2018-03-29T09:54:14.016Z,995.82
2018-03-29T09:55:14.003Z,995.85
2018-03-29T09:57:13.842Z,995.96
2018-03-29T09:58:13.931Z,996.04
2018-03-29T09:59:13.929Z,996.03
2018-03-29T10:00:13.780Z,996.02
2018-03-29T10:01:13.754Z,995.94
2018-03-29T10:03:13.734Z,996.00
2018-03-29T10:04:14.051Z,995.98
2018-03-29T10:05:13.888Z,995.97
2018-03-29T10:06:13.710Z,996.07
2018-03-29T10:07:13.933Z,996.05
2018-03-29T10:08:13.704Z,996.15
2018-03-29T10:09:13.612Z,996.20
2018-03-29T10:10:13.604Z,996.19
2018-03-29T10:11:13.935Z,996.17
2018-03-29T10:12:13.612Z,996.08
2018-03-29T10:13:13.699Z,996.07
2018-03-29T10:14:13.524Z,996.18
2018-03-29T10:15:13.632Z,995.97
2018-03-29T10:16:14.126Z,996.03
2018-03-29T10:17:13.803Z,995.87
2018-03-29T10:19:13.924Z,996.04
2018-03-29T10:20:13.528Z,995.96
2018-03-29T10:21:13.398Z,995.92
2018-03-29T10:22:13.539Z,995.95
2018-03-29T10:23:13.520Z,996.00
2018-03-29T10:24:13.477Z,996.00
2018-03-29T10:26:13.714Z,995.98
2018-03-29T10:28:13.455Z,996.33
2018-03-29T10:29:13.471Z,996.31
2018-03-29T10:30:13.502Z,996.24
2018-03-29T10:31:13.383Z,996.52
2018-03-29T10:32:13.206Z,996.57
2018-03-29T10:33:13.652Z,996.64
2018-03-29T10:34:13.301Z,996.57
2018-03-29T10:35:13.161Z,996.36
2018-03-29T10:36:13.379Z,996.33
2018-03-29T10:37:13.114Z,996.32
2018-03-29T10:38:13.335Z,996.30
2018-03-29T10:39:13.123Z,996.41
2018-03-29T10:41:13.156Z,996.58
2018-03-29T10:42:13.702Z,996.50
2018-03-29T10:43:13.115Z,996.48
2018-03-29T10:44:13.047Z,996.62
2018-03-29T10:45:13.302Z,996.62
2018-03-29T10:46:12.968Z,996.56
2018-03-29T10:47:12.952Z,996.77
2018-03-29T10:48:12.936Z,996.64
2018-03-29T10:49:13.120Z,996.52
2018-03-29T10:50:13.230Z,996.64
2018-03-29T10:51:13.398Z,996.50
2018-03-29T10:52:13.066Z,996.68
2018-03-29T10:53:12.932Z,996.79
2018-03-29T10:54:12.868Z,996.39
2018-03-29T10:55:12.869Z,996.48
2018-03-29T10:58:13.211Z,996.48
2018-03-29T10:59:12.944Z,996.50
2018-03-29T11:00:12.770Z,996.40
2018-03-29T11:01:12.753Z,996.32
2018-03-29T11:02:12.744Z,996.40
2018-03-29T11:03:12.799Z,996.34
2018-03-29T11:04:12.864Z,996.44
2018-03-29T11:05:13.005Z,996.47
2018-03-29T11:06:12.770Z,996.47
2018-03-29T11:07:12.675Z,996.33
2018-03-29T11:08:12.650Z,996.39
2018-03-29T11:09:12.637Z,996.37
2018-03-29T11:10:12.733Z,996.27
2018-03-29T11:11:12.745Z,996.37
2018-03-29T11:12:12.897Z,996.44
2018-03-29T11:13:13.167Z,996.39
2018-03-29T11:14:12.567Z,996.42
2018-03-29T11:15:12.551Z,996.45
2018-03-29T11:16:12.535Z,996.35
2018-03-29T11:17:12.524Z,996.39
2018-03-29T11:18:12.813Z,996.44
2018-03-29T11:19:12.631Z,996.44
2018-03-29T11:20:12.457Z,996.46
2018-03-29T11:21:12.452Z,996.50
2018-03-29T11:22:12.528Z,996.46
2018-03-29T11:23:12.575Z,996.48
2018-03-29T11:24:13.136Z,996.55
2018-03-29T11:25:12.949Z,996.57
2018-03-29T11:26:13.027Z,996.63
2018-03-29T11:27:12.346Z,996.57
2018-03-29T11:28:12.464Z,996.67
2018-03-29T11:29:12.484Z,996.65
2018-03-29T11:30:12.608Z,996.62
2018-03-29T11:31:15.486Z,996.65
2018-03-29T11:32:12.253Z,996.67
2018-03-29T11:33:12.291Z,996.66
2018-03-29T11:34:12.276Z,996.67
2018-03-29T11:35:12.251Z,996.66
2018-03-29T11:36:12.558Z,996.66
2018-03-29T11:37:12.290Z,996.71
2018-03-29T11:38:12.152Z,996.75
2018-03-29T11:39:12.183Z,996.79
2018-03-29T11:40:12.153Z,996.80
2018-03-29T11:41:12.104Z,996.81
2018-03-29T11:42:12.405Z,996.92
2018-03-29T11:43:12.041Z,996.85
2018-03-29T11:44:12.139Z,996.91
2018-03-29T11:45:12.021Z,996.87
2018-03-29T11:46:12.048Z,996.83
2018-03-29T11:47:11.952Z,996.77
2018-03-29T11:48:12.243Z,996.80
2018-03-29T11:49:12.348Z,996.72
2018-03-29T11:50:12.066Z,996.78
2018-03-29T11:51:11.997Z,996.81
2018-03-29T11:52:12.080Z,996.85
2018-03-29T11:53:11.968Z,996.92
2018-03-29T11:54:12.494Z,996.97
2018-03-29T11:55:12.132Z,997.94
2018-03-29T11:56:12.047Z,997.07
2018-03-29T11:57:11.781Z,997.07
2018-03-29T11:58:11.876Z,997.13
2018-03-29T11:59:12.285Z,997.19
2018-03-29T12:00:12.493Z,997.70
2018-03-29T12:01:11.692Z,997.67
2018-03-29T12:02:11.686Z,997.62
2018-03-29T12:03:12.044Z,997.60
2018-03-29T12:04:11.657Z,997.63
2018-03-29T12:05:11.739Z,997.63
2018-03-29T12:06:11.911Z,997.66
2018-03-29T12:07:11.606Z,997.73
2018-03-29T12:08:11.633Z,997.59
2018-03-29T12:09:11.625Z,997.60
2018-03-29T12:10:11.628Z,997.59
2018-03-29T12:11:11.619Z,997.65
2018-03-29T12:12:11.897Z,997.61
2018-03-29T12:13:11.522Z,997.62
2018-03-29T12:14:11.582Z,997.64
2018-03-29T12:15:11.629Z,997.63
2018-03-29T12:16:11.544Z,997.30
2018-03-29T12:17:11.465Z,997.25
2018-03-29T12:18:11.742Z,997.68
2018-03-29T12:19:11.538Z,997.16
2018-03-29T12:20:11.598Z,997.42
2018-03-29T12:21:11.697Z,997.67
2018-03-29T12:22:11.685Z,997.75
2018-03-29T12:23:11.384Z,997.51
2018-03-29T12:24:11.679Z,997.65
2018-03-29T12:25:11.484Z,997.70
2018-03-29T12:26:11.404Z,997.41
2018-03-29T12:27:11.328Z,997.05
2018-03-29T12:28:11.479Z,997.07
2018-03-29T12:29:11.411Z,997.68
2018-03-29T12:30:11.692Z,997.49
2018-03-29T12:31:11.374Z,997.21
2018-03-29T12:32:11.484Z,997.46
2018-03-29T12:33:11.430Z,997.21
2018-03-29T12:34:11.508Z,997.19
2018-03-29T12:35:11.345Z,997.08
2018-03-29T12:36:11.632Z,997.07
2018-03-29T12:37:11.382Z,997.80
2018-03-29T12:38:11.625Z,998.07
2018-03-29T12:39:11.533Z,997.18
2018-03-29T12:40:11.702Z,997.61
2018-03-29T12:41:11.263Z,997.97
2018-03-29T12:42:11.919Z,997.53
2018-03-29T12:43:11.245Z,997.72
2018-03-29T12:44:11.303Z,997.12
2018-03-29T12:45:11.746Z,997.06
2018-03-29T12:46:11.214Z,997.10
2018-03-29T12:48:11.537Z,996.96
2018-03-29T12:49:11.061Z,997.07
2018-03-29T12:50:11.037Z,997.48
2018-03-29T12:51:11.033Z,997.40
2018-03-29T12:52:11.011Z,997.55
2018-03-29T12:53:10.993Z,997.15
2018-03-29T12:54:11.329Z,997.27
2018-03-29T12:55:10.965Z,997.20
2018-03-29T12:56:10.972Z,997.15